Watertown International Airport
KART : now visible

Airfield :











YOU CAN JOIN US ON...

 
LOGIN :

Register | Disclaimer

   EN    FR    IT 

 









Legend :    VFR   Marginal VFR   IFR   Intensive IFR   Very Intensive IFR
Visi :
Ceiling :
>= 8 km
>= 3000ft
5 to 8 km
1000 to 3000 ft
1500m to 5 km
500 to 1000 ft
800 to 1500m
200 to 500 ft
< 800m
< 200 ft
Symbols :   Thunderstorms  Fog  Heavy snow  Heavy precipitations  Wind > 20 kt






- Airport Elevation : 325 ft
- IATA code : ART


KART - Watertown International

CURRENT METAR :
  • 141556Z AUTO 19012G20KT 160V230 10SM FEW050 OVC075 M01/M07 A3022 RMK AO2 SNE01 SLP240 P0000 T10111067

EXPIRED METARs :
  • 141437Z AUTO 18012G17KT 1 3/4SM -SN OVC047 M03/M07 A3022 RMK AO2 SNE1357B14 P0000 T10281067
  • 141356Z AUTO 18008G18KT 3SM -SN BKN050 OVC075 M03/M07 A3022 RMK AO2 SNB08E37B43 SLP242 P0000 T10331067

TAF KART
Valid from the 14 at 15:00 until the 15 at 12:00 UTC


141505Z 1415/1512 18010G18KT 2SM -SN BKN050
FM141800 19014G23KT P6SM OVC040
FM150200 21009KT P6SM OVC030
FM150800 22012KT 2SM BR VCSH OVC025
FM151100 23015KT P6SM BKN020



MET'MAP, your aeronautical weather chart ! - Copyright ORBIFLY December 2007 - Disclaimer

ORBIFLY MET'MAP TEAM :

Programming & Development : Alexandra Zaïnal
Concept & Development : Baudouin d'Aumeries
Co-Development & Prog : Marc-Olivier Méhu
Technical & hardware support : Manuel Goepfert

Contact : metmap@orbifly.com




SOURCES & CREDITS :

   NOAA       Earth
Advisory